Flight Track Log - Related Links

Times and Time Zones

All times are in EDT time to prevent confusion due to time zone crossing. See the SWA3960 flight status page for this flight to view local times or setup timezone preferences in your user account.

Time Position Orientation Groundspeed Altitude Reporting Facility
EDT Latitude Longitude Course Direction KTS MPH feet Rate Location/Type
Fri 10:39:45 PM 41.7950 -87.7660 307° West 139 160 1,400  Level FlightAware ADS-B
Fri 10:39:53 PM 41.7970 -87.7730 291° West 139 160 1,900 1,667 Climbing FlightAware ADS-B
Fri 10:40:21 PM 41.7900 -87.7980 249° West 194 223 2,400 1,625 Climbing FlightAware ADS-B
Fri 10:40:41 PM 41.7820 -87.8220 246° West 214 246 3,200 3,070 Climbing FlightAware ADS-B
Fri 10:41:04 PM 41.7720 -87.8520 246° West 227 261 4,600 2,930 Climbing FlightAware ADS-B
Fri 10:41:24 PM 41.7620 -87.8790 244° Southwest 259 298 5,300 3,000 Climbing FlightAware ADS-B
Fri 10:41:44 PM 41.7530 -87.9090 248° West 265 305 6,600 4,138 Climbing FlightAware ADS-B
Fri 10:41:53 PM 41.7510 -87.9250 260° West 264 304 7,300 4,345 Climbing FlightAware ADS-B
Fri 10:42:13 PM 41.7500 -87.9560 268° West 268 308 8,700 4,071 Climbing FlightAware ADS-B
Fri 10:42:49 PM 41.7470 -88.0160 266° West 276 318 11,100 2,605 Climbing FlightAware ADS-B
Fri 10:43:29 PM 41.7490 -88.0880 272° West 281 323 12,000 868 Climbing FlightAware ADS-B
Fri 10:44:05 PM 41.7550 -88.1500 277° West 290 334 12,200 845 Climbing FlightAware ADS-B
Fri 10:44:40 PM 41.7740 -88.2140 292° West 343 395 13,000 2,167 Climbing FlightAware ADS-B
Fri 10:45:17 PM 41.7980 -88.2900 293° West 364 419 14,800 3,217 Climbing FlightAware ADS-B
Fri 10:45:49 PM 41.8200 -88.3570 294° West 368 423 16,700 3,353 Climbing FlightAware ADS-B
Fri 10:46:25 PM 41.8440 -88.4320 293° West 375 432 18,600 3,000 Climbing FlightAware ADS-B
Fri 10:46:59 PM 41.8470 -88.5110 273° West 385 443 20,200 2,743 Climbing FlightAware ADS-B
Fri 10:47:35 PM 41.8440 -88.6000 267° West 395 455 21,800 2,667 Climbing FlightAware ADS-B
Fri 10:48:11 PM 41.8400 -88.6870 266° West 401 461 23,400 2,417 Climbing FlightAware ADS-B
Fri 10:48:47 PM 41.8370 -88.7770 267° West 411 473 24,700 2,029 Climbing FlightAware ADS-B
Fri 10:49:19 PM 41.8350 -88.8590 268° West 422 486 25,700 2,118 Climbing FlightAware ADS-B
Fri 10:49:55 PM 41.8330 -88.9540 268° West 423 487 27,100 2,500 Climbing FlightAware ADS-B
Fri 10:50:31 PM 41.8310 -89.0470 268° West 417 480 28,700 2,735 Climbing FlightAware ADS-B
Fri 10:51:03 PM 41.8290 -89.1310 268° West 406 467 30,200 2,657 Climbing FlightAware ADS-B
Fri 10:51:41 PM 41.8260 -89.2240 268° West 397 457 31,800 2,108 Climbing FlightAware ADS-B
Fri 10:52:17 PM 41.8230 -89.3110 267° West 399 459 32,800 1,676 Climbing FlightAware ADS-B
Fri 10:52:49 PM 41.8210 -89.3910 268° West 400 460 33,700 1,727 Climbing FlightAware ADS-B
Fri 10:53:23 PM 41.8190 -89.4740 268° West 398 458 34,700 1,667 Climbing FlightAware ADS-B
Fri 10:54:01 PM 41.8160 -89.5700 268° West 398 458 35,700 1,114 Climbing FlightAware ADS-B
Fri 10:54:33 PM 41.8140 -89.6460 268° West 392 451 36,000 265 Climbing FlightAware ADS-B
Fri 10:55:09 PM 41.8110 -89.7330 267° West 390 449 36,000  Level FlightAware ADS-B
Fri 10:55:45 PM 41.8080 -89.8200 267° West 388 447 36,000  Level FlightAware ADS-B
Fri 10:56:22 PM 41.8050 -89.9090 267° West 388 447 36,000  Level FlightAware ADS-B
Fri 10:56:54 PM 41.8030 -89.9860 268° West 388 447 36,000  Level FlightAware ADS-B
Fri 10:57:32 PM 41.8000 -90.0780 268° West 388 447 36,000  Level FlightAware ADS-B
Fri 10:58:03 PM 41.7970 -90.1500 267° West 388 447 36,000  Level FlightAware ADS-B
Fri 10:58:40 PM 41.7940 -90.2390 267° West 388 447 36,000  Level FlightAware ADS-B
Fri 10:59:16 PM 41.7910 -90.3250 267° West 387 445 36,000  Level FlightAware ADS-B
Fri 10:59:52 PM 41.7870 -90.4130 267° West 387 445 36,000  Level FlightAware ADS-B
Fri 11:00:23 PM 41.7850 -90.4830 268° West 387 445 36,000  Level FlightAware ADS-B
Fri 11:00:58 PM 41.7820 -90.5670 267° West 388 447 36,000  Level FlightAware ADS-B
Fri 11:01:36 PM 41.7780 -90.6610 267° West 388 447 36,000  Level FlightAware ADS-B
Fri 11:02:08 PM 41.7750 -90.7370 267° West 388 447 36,000  Level FlightAware ADS-B
Fri 11:02:46 PM 41.7710 -90.8250 267° West 388 447 36,000  Level FlightAware ADS-B
Fri 11:03:22 PM 41.7680 -90.9140 267° West 389 448 36,000  Level FlightAware ADS-B
Fri 11:03:52 PM 41.7650 -90.9830 267° West 389 448 36,000  Level FlightAware ADS-B
Fri 11:04:27 PM 41.7610 -91.0690 266° West 389 448 36,000  Level FlightAware ADS-B
Fri 11:05:07 PM 41.7570 -91.1670 267° West 389 448 36,000  Level FlightAware ADS-B
Fri 11:05:40 PM 41.7530 -91.2470 266° West 390 449 36,000  Level FlightAware ADS-B
Fri 11:06:16 PM 41.7490 -91.3340 267° West 390 449 36,000  Level FlightAware ADS-B
Fri 11:06:52 PM 41.7450 -91.4210 267° West 391 450 36,000  Level FlightAware ADS-B
Fri 11:07:24 PM 41.7420 -91.4980 267° West 391 450 36,000  Level FlightAware ADS-B
Fri 11:08:00 PM 41.7380 -91.5830 266° West 391 450 36,000  Level FlightAware ADS-B
Fri 11:08:32 PM 41.7340 -91.6610 266° West 392 451 36,000  Level FlightAware ADS-B
Fri 11:09:17 PM 41.7280 -91.7680 266° West 392 451 36,000  Level FlightAware ADS-B
Fri 11:09:51 PM 41.7240 -91.8520 266° West 393 452 36,000  Level FlightAware ADS-B
Fri 11:10:26 PM 41.7200 -91.9360 266° West 393 452 36,000  Level FlightAware ADS-B
Fri 11:11:00 PM 41.7160 -92.0180 266° West 393 452 36,000  Level FlightAware ADS-B
Fri 11:11:42 PM 41.7110 -92.1210 266° West 394 453 36,000  Level FlightAware ADS-B
Fri 11:12:16 PM 41.7060 -92.2030 265° West 395 455 36,000  Level FlightAware ADS-B
Fri 11:12:51 PM 41.7010 -92.2890 266° West 395 455 36,000  Level FlightAware ADS-B
Fri 11:13:27 PM 41.6970 -92.3720 266° West 394 453 36,000  Level FlightAware ADS-B
Fri 11:14:01 PM 41.6920 -92.4580 266° West 394 453 36,000  Level FlightAware ADS-B
Fri 11:14:36 PM 41.6880 -92.5440 266° West 394 453 36,000  Level FlightAware ADS-B
Fri 11:15:16 PM 41.6820 -92.6330 265° West 393 452 36,000  Level FlightAware ADS-B
Fri 11:15:46 PM 41.6780 -92.7110 266° West 392 451 36,000  Level FlightAware ADS-B
Fri 11:16:21 PM 41.6730 -92.7970 266° West 391 450 36,000  Level FlightAware ADS-B
Fri 11:16:56 PM 41.6680 -92.8820 266° West 391 450 36,000  Level FlightAware ADS-B
Fri 11:17:33 PM 41.6630 -92.9680 266° West 391 450 36,000  Level FlightAware ADS-B
Fri 11:18:08 PM 41.6580 -93.0560 266° West 392 451 36,000  Level FlightAware ADS-B
Fri 11:18:42 PM 41.6530 -93.1360 265° West 393 452 36,000  Level FlightAware ADS-B
Fri 11:19:18 PM 41.6470 -93.2250 265° West 393 452 36,000  Level FlightAware ADS-B
Fri 11:19:52 PM 41.6420 -93.3070 265° West 394 453 36,000  Level FlightAware ADS-B
Fri 11:20:28 PM 41.6360 -93.3950 265° West 396 456 36,000  Level FlightAware ADS-B
Fri 11:21:06 PM 41.6310 -93.4820 266° West 397 457 36,000  Level FlightAware ADS-B
Fri 11:21:42 PM 41.6250 -93.5740 265° West 398 458 36,000  Level FlightAware ADS-B
Fri 11:22:14 PM 41.6200 -93.6530 265° West 400 460 36,000  Level FlightAware ADS-B
Fri 11:22:50 PM 41.6140 -93.7420 265° West 400 460 36,000  Level FlightAware ADS-B
Fri 11:23:26 PM 41.6080 -93.8310 265° West 399 459 36,000 -794 Level FlightAware ADS-B
Fri 11:23:58 PM 41.6030 -93.9070 265° West 393 452 35,100 -882 Descending FlightAware ADS-B
Fri 11:24:34 PM 41.5970 -93.9940 265° West 392 451 35,000 -83 Descending FlightAware ADS-B
Fri 11:25:10 PM 41.5900 -94.0830 264° West 396 456 35,000 -333 Level FlightAware ADS-B
Fri 11:25:46 PM 41.5840 -94.1690 265° West 399 459 34,600 -2,500 Descending FlightAware ADS-B
Fri 11:26:34 PM 41.5760 -94.2880 265° West 418 481 31,500 -4,125 Descending FlightAware ADS-B
Fri 11:27:06 PM 41.5700 -94.3730 265° West 434 499 29,100 -2,028 Descending FlightAware ADS-B
Fri 11:27:45 PM 41.5630 -94.4620 264° West 434 499 29,100  Level FlightAware ADS-B
Fri 11:28:21 PM 41.5570 -94.5430 264° West 434 499 29,100  Level FlightAware ADS-B
Fri 11:28:57 PM 41.5500 -94.6250 264° West 434 499 29,100  Level FlightAware ADS-B
Fri 11:29:21 PM 41.5460 -94.6800 264° West 434 499 29,100  Level FlightAware ADS-B
Fri 11:29:55 PM 41.5400 -94.7570 264° West 434 499 29,100  Level FlightAware ADS-B
Fri 11:30:33 PM 41.5330 -94.8430 264° West 434 499 29,100 -5,799 Level FlightAware ADS-B
Fri 11:32:54 PM 41.4400 -95.2300 252° West 363 418 11,800 -6,069 Descending FlightAware ADS-B
Fri 11:33:27 PM 41.4360 -95.2950 265° West 361 415 11,500 -1,500 Descending FlightAware ADS-B
Fri 11:34:02 PM 41.4320 -95.3710 266° West 304 350 10,100 -1,889 Descending FlightAware ADS-B
Fri 11:34:21 PM 41.4310 -95.4030 268° West 292 336 9,800 -1,395 Descending FlightAware ADS-B
Fri 11:34:45 PM 41.4290 -95.4450 266° West 287 330 9,100 -1,756 Descending FlightAware ADS-B
Fri 11:35:02 PM 41.4270 -95.4770 265° West 284 327 8,600 -698 Descending FlightAware ADS-B
Fri 11:35:28 PM 41.4250 -95.5160 266° West 284 327 8,600 -2,049 Level FlightAware ADS-B
Fri 11:35:43 PM 41.4230 -95.5490 265° West 283 326 7,200 -3,677 Descending FlightAware ADS-B
Fri 11:35:59 PM 41.4220 -95.5760 267° West 280 322 6,700 -1,610 Descending FlightAware ADS-B
Fri 11:36:24 PM 41.4200 -95.6160 266° West 276 318 6,100 -1,756 Descending FlightAware ADS-B
Fri 11:36:40 PM 41.4180 -95.6460 265° West 272 313 5,500 -1,385 Descending FlightAware ADS-B
Fri 11:37:03 PM 41.4160 -95.6850 266° West 260 299 5,200 -871 Descending FlightAware ADS-B
Fri 11:37:42 PM 41.4130 -95.7400 266° West 242 278 4,600 -1,167 Descending FlightAware ADS-B
Fri 11:38:15 PM 41.4100 -95.7900 265° West 234 269 3,800 -1,292 Descending FlightAware ADS-B
Fri 11:38:47 PM 41.4080 -95.8330 266° West 223 257 3,200 -1,038 Descending FlightAware ADS-B
Fri 11:39:07 PM 41.4060 -95.8550 263° West 217 250 2,900 -667 Descending FlightAware ADS-B
Fri 11:39:32 PM 41.3990 -95.8910 255° West 188 216 2,700 -857 Descending FlightAware ADS-B
Fri 11:39:42 PM 41.3920 -95.8960 208° Southwest 182 209 2,400 -558 Descending FlightAware ADS-B
Fri 11:40:15 PM 41.3700 -95.9090 204° Southwest 182 209 2,300 -1,029 Descending FlightAware ADS-B
Fri 11:40:17 PM 41.3670 -95.8950 106° East 175 201 1,800 -1,034 Descending FlightAware ADS-B
Fri 11:40:44 PM 41.3490 -95.8900 168° South 175 201 1,800 -429 Level FlightAware ADS-B
Fri 11:42:09 PM 41.2964 -95.8931 168° South 163 188 1,000 -565 Descending Minneapolis Center

Login

Don't have an account? Register now (free) for customized features, flight alerts, and more!